Time;durP1;ratioP1;P1;durP2;ratioP2;P2;SDS_P1;SDS_P2;PMS_P1;PMS_P2;Temp;Humidity;BMP_temperature;BMP_pressure;BME280_temperature;BME280_humidity;BME280_pressure;Samples;Min_cycle;Max_cycle;Signal;HPM_P1;HPM_P2
2022/05/15 07:50:15;;;;;;;0.20;0.20;;;;;;;;;;5120919;27;20344;-73
2022/05/15 07:52:41;;;;;;;0.30;0.30;;;;;;;;;;5139108;27;20024;-74
2022/05/15 07:55:07;;;;;;;0.20;0.20;;;;;;;;;;5127093;27;20111;-73
2022/05/15 07:57:34;;;;;;;0.20;0.20;;;;;;;;;;5116215;28;20023;-74
2022/05/15 08:00:09;;;;;;;0.20;0.20;;;;;;;;;;5110448;28;20100;-74
2022/05/15 08:02:35;;;;;;;0.10;0.10;;;;;;;;;;5110924;28;20031;-75
2022/05/15 08:08:02;;;;;;;0.77;0.20;;;;;;;;;;5115379;27;20041;-77
2022/05/15 08:10:30;;;;;;;0.13;0.13;;;;;;;;;;5124518;27;20151;-78
2022/05/15 08:12:56;;;;;;;0.20;0.20;;;;;;;;;;5106769;28;20072;-75
2022/05/15 08:15:22;;;;;;;0.30;0.30;;;;;;;;;;5124820;27;20434;-85
2022/05/15 08:17:48;;;;;;;0.10;0.10;;;;;;;;;;5124386;27;20035;-83
2022/05/15 08:23:34;;;;;;;0.38;0.38;;;;;;;;;;5106344;28;20035;-78
2022/05/15 08:26:03;;;;;;;0.10;0.10;;;;;;;;;;5106405;28;20150;-82
2022/05/15 08:28:29;;;;;;;0.05;0.05;;;;;;;;;;5105684;28;20028;-80
2022/05/15 08:30:55;;;;;;;0.10;0.10;;;;;;;;;;5105607;28;20039;-81
2022/05/15 08:33:21;;;;;;;0.00;0.00;;;;;;;;;;5106644;28;20081;-81
2022/05/15 08:35:47;;;;;;;0.20;0.20;;;;;;;;;;5106194;28;20024;-80
2022/05/15 08:38:13;;;;;;;0.10;0.10;;;;;;;;;;5104665;28;20020;-80
2022/05/15 08:40:45;;;;;;;0.10;0.10;;;;;;;;;;5091475;28;20036;-79
2022/05/15 08:43:12;;;;;;;0.10;0.10;;;;;;;;;;5084695;28;20435;-78
2022/05/15 08:45:42;;;;;;;0.10;0.10;;;;;;;;;;5101787;28;20028;-82
2022/05/15 08:48:10;;;;;;;0.20;0.20;;;;;;;;;;5095784;28;20568;-83
2022/05/15 08:50:39;;;;;;;0.10;0.10;;;;;;;;;;5098382;27;20040;-82
2022/05/15 08:53:08;;;;;;;0.10;0.10;;;;;;;;;;5102972;28;20032;-82
2022/05/15 08:55:39;;;;;;;0.10;0.10;;;;;;;;;;5107680;28;20490;-81
2022/05/15 08:58:23;;;;;;;0.10;0.10;;;;;;;;;;5106459;28;20331;-81
2022/05/15 09:00:51;;;;;;;0.10;0.10;;;;;;;;;;5092138;27;20572;-83
2022/05/15 09:03:19;;;;;;;0.13;0.13;;;;;;;;;;5087787;28;20074;-82
2022/05/15 09:05:49;;;;;;;0.10;0.10;;;;;;;;;;5086125;28;20031;-82
2022/05/15 09:08:30;;;;;;;0.10;0.10;;;;;;;;;;5091508;28;20036;-82
2022/05/15 09:11:01;;;;;;;0.10;0.10;;;;;;;;;;5085478;28;20511;-82
2022/05/15 09:13:53;;;;;;;0.10;0.10;;;;;;;;;;5097838;28;20024;-82
2022/05/15 09:16:23;;;;;;;0.10;0.10;;;;;;;;;;5098057;28;20040;-83
2022/05/15 09:18:49;;;;;;;0.10;0.10;;;;;;;;;;5099211;28;20052;-84
2022/05/15 09:21:15;;;;;;;0.10;0.10;;;;;;;;;;5085910;28;20029;-82
2022/05/15 09:23:45;;;;;;;0.10;0.10;;;;;;;;;;5088090;28;20425;-82
2022/05/15 09:26:11;;;;;;;0.17;0.17;;;;;;;;;;5087165;28;20024;-82
2022/05/15 09:28:47;;;;;;;0.13;0.13;;;;;;;;;;5087056;28;20078;-80
2022/05/15 09:31:19;;;;;;;0.20;0.20;;;;;;;;;;5089448;28;20031;-80
2022/05/15 09:34:00;;;;;;;0.17;0.17;;;;;;;;;;5091450;27;20398;-82
2022/05/15 09:36:30;;;;;;;0.15;0.15;;;;;;;;;;5073254;28;20099;-84
2022/05/15 09:39:15;;;;;;;0.10;0.10;;;;;;;;;;5073403;28;20060;-76
